sensor_id;sensor_type;location;lat;lon;timestamp;temperature;humidity
10030;DHT22;5055;52.054;8.524;2024-03-06T00:00:41;5.70;97.00
10030;DHT22;5055;52.054;8.524;2024-03-06T00:03:11;5.70;97.00
10030;DHT22;5055;52.054;8.524;2024-03-06T00:05:39;5.70;97.00
10030;DHT22;5055;52.054;8.524;2024-03-06T00:08:07;5.70;97.00
10030;DHT22;5055;52.054;8.524;2024-03-06T00:10:35;5.70;97.00
10030;DHT22;5055;52.054;8.524;2024-03-06T00:13:03;5.70;97.00
10030;DHT22;5055;52.054;8.524;2024-03-06T00:15:31;5.70;97.00
10030;DHT22;5055;52.054;8.524;2024-03-06T00:18:00;5.70;97.00
10030;DHT22;5055;52.054;8.524;2024-03-06T00:20:30;5.80;97.00
10030;DHT22;5055;52.054;8.524;2024-03-06T00:22:58;5.80;97.00
10030;DHT22;5055;52.054;8.524;2024-03-06T00:25:27;5.80;97.00
10030;DHT22;5055;52.054;8.524;2024-03-06T00:27:55;5.80;97.00
10030;DHT22;5055;52.054;8.524;2024-03-06T00:30:24;5.80;97.00
10030;DHT22;5055;52.054;8.524;2024-03-06T00:32:52;5.80;97.00
10030;DHT22;5055;52.054;8.524;2024-03-06T00:35:21;5.80;97.00
10030;DHT22;5055;52.054;8.524;2024-03-06T00:37:52;5.80;97.00
10030;DHT22;5055;52.054;8.524;2024-03-06T00:40:21;5.80;97.00
10030;DHT22;5055;52.054;8.524;2024-03-06T00:42:50;5.70;97.00
10030;DHT22;5055;52.054;8.524;2024-03-06T00:45:18;5.70;97.00
10030;DHT22;5055;52.054;8.524;2024-03-06T00:47:46;5.70;97.00
10030;DHT22;5055;52.054;8.524;2024-03-06T00:50:15;5.70;97.00
10030;DHT22;5055;52.054;8.524;2024-03-06T00:52:45;5.70;97.00
10030;DHT22;5055;52.054;8.524;2024-03-06T00:55:14;5.60;97.00
10030;DHT22;5055;52.054;8.524;2024-03-06T00:57:43;5.60;97.00
10030;DHT22;5055;52.054;8.524;2024-03-06T01:00:12;5.60;97.00
10030;DHT22;5055;52.054;8.524;2024-03-06T01:02:42;5.60;97.00
10030;DHT22;5055;52.054;8.524;2024-03-06T01:05:10;5.60;97.00
10030;DHT22;5055;52.054;8.524;2024-03-06T01:07:38;5.60;97.00
10030;DHT22;5055;52.054;8.524;2024-03-06T01:10:08;5.60;97.00
10030;DHT22;5055;52.054;8.524;2024-03-06T01:12:37;5.60;97.00
10030;DHT22;5055;52.054;8.524;2024-03-06T01:15:06;5.60;97.00
10030;DHT22;5055;52.054;8.524;2024-03-06T01:17:35;5.60;97.00
10030;DHT22;5055;52.054;8.524;2024-03-06T01:20:04;5.60;97.00
10030;DHT22;5055;52.054;8.524;2024-03-06T01:22:33;5.60;97.00
10030;DHT22;5055;52.054;8.524;2024-03-06T01:25:02;5.60;97.00
10030;DHT22;5055;52.054;8.524;2024-03-06T01:27:31;5.60;97.00
10030;DHT22;5055;52.054;8.524;2024-03-06T01:30:01;5.60;97.00
10030;DHT22;5055;52.054;8.524;2024-03-06T01:32:29;5.60;97.00
10030;DHT22;5055;52.054;8.524;2024-03-06T01:34:58;5.60;97.00
10030;DHT22;5055;52.054;8.524;2024-03-06T01:37:26;5.60;97.00
10030;DHT22;5055;52.054;8.524;2024-03-06T01:39:54;5.60;97.00
10030;DHT22;5055;52.054;8.524;2024-03-06T01:42:22;5.60;97.00
10030;DHT22;5055;52.054;8.524;2024-03-06T01:44:50;5.60;97.00
10030;DHT22;5055;52.054;8.524;2024-03-06T01:47:20;5.60;97.00
10030;DHT22;5055;52.054;8.524;2024-03-06T01:49:48;5.60;97.00
10030;DHT22;5055;52.054;8.524;2024-03-06T01:52:18;5.60;97.00
10030;DHT22;5055;52.054;8.524;2024-03-06T01:54:48;5.60;97.00
10030;DHT22;5055;52.054;8.524;2024-03-06T01:57:18;5.60;97.00
10030;DHT22;5055;52.054;8.524;2024-03-06T01:59:48;5.60;97.00
10030;DHT22;5055;52.054;8.524;2024-03-06T02:02:16;5.60;97.00
10030;DHT22;5055;52.054;8.524;2024-03-06T02:04:46;5.60;97.00
10030;DHT22;5055;52.054;8.524;2024-03-06T02:07:16;5.60;97.00
10030;DHT22;5055;52.054;8.524;2024-03-06T02:09:44;5.60;97.00
10030;DHT22;5055;52.054;8.524;2024-03-06T02:12:13;5.60;97.00
10030;DHT22;5055;52.054;8.524;2024-03-06T02:14:41;5.60;97.00
10030;DHT22;5055;52.054;8.524;2024-03-06T02:17:09;5.60;97.00
10030;DHT22;5055;52.054;8.524;2024-03-06T02:19:38;5.60;97.00
10030;DHT22;5055;52.054;8.524;2024-03-06T02:22:09;5.60;97.00
10030;DHT22;5055;52.054;8.524;2024-03-06T02:24:42;5.60;97.00
10030;DHT22;5055;52.054;8.524;2024-03-06T02:27:10;5.60;97.00
10030;DHT22;5055;52.054;8.524;2024-03-06T02:29:38;5.60;97.00
10030;DHT22;5055;52.054;8.524;2024-03-06T02:32:06;5.60;97.00
10030;DHT22;5055;52.054;8.524;2024-03-06T02:34:35;5.60;97.00
10030;DHT22;5055;52.054;8.524;2024-03-06T02:37:03;5.60;97.00
10030;DHT22;5055;52.054;8.524;2024-03-06T02:39:33;5.60;97.00
10030;DHT22;5055;52.054;8.524;2024-03-06T02:42:03;5.60;97.00
10030;DHT22;5055;52.054;8.524;2024-03-06T02:44:31;5.60;97.00
10030;DHT22;5055;52.054;8.524;2024-03-06T02:46:59;5.60;97.00
10030;DHT22;5055;52.054;8.524;2024-03-06T02:49:27;5.60;97.00
10030;DHT22;5055;52.054;8.524;2024-03-06T02:51:56;5.60;97.00
10030;DHT22;5055;52.054;8.524;2024-03-06T02:54:24;5.60;97.00
10030;DHT22;5055;52.054;8.524;2024-03-06T02:56:54;5.60;97.00
10030;DHT22;5055;52.054;8.524;2024-03-06T02:59:22;5.70;97.00
10030;DHT22;5055;52.054;8.524;2024-03-06T03:01:50;5.70;97.00
10030;DHT22;5055;52.054;8.524;2024-03-06T03:04:18;5.70;97.00
10030;DHT22;5055;52.054;8.524;2024-03-06T03:06:47;5.70;97.00
10030;DHT22;5055;52.054;8.524;2024-03-06T03:09:15;5.70;97.00
10030;DHT22;5055;52.054;8.524;2024-03-06T03:11:43;5.70;97.00
10030;DHT22;5055;52.054;8.524;2024-03-06T03:14:13;5.70;97.00
10030;DHT22;5055;52.054;8.524;2024-03-06T03:16:41;5.70;97.00
10030;DHT22;5055;52.054;8.524;2024-03-06T03:19:09;5.70;97.00
10030;DHT22;5055;52.054;8.524;2024-03-06T03:21:38;5.70;97.00
10030;DHT22;5055;52.054;8.524;2024-03-06T03:24:10;5.70;97.00
10030;DHT22;5055;52.054;8.524;2024-03-06T03:26:39;5.70;97.00
10030;DHT22;5055;52.054;8.524;2024-03-06T03:29:09;5.70;97.00
10030;DHT22;5055;52.054;8.524;2024-03-06T03:31:39;5.80;97.00
10030;DHT22;5055;52.054;8.524;2024-03-06T03:34:07;5.80;97.00
10030;DHT22;5055;52.054;8.524;2024-03-06T03:36:40;5.80;97.00
10030;DHT22;5055;52.054;8.524;2024-03-06T03:39:09;5.80;97.00
10030;DHT22;5055;52.054;8.524;2024-03-06T03:41:43;5.80;97.00
10030;DHT22;5055;52.054;8.524;2024-03-06T03:44:13;5.80;97.00
10030;DHT22;5055;52.054;8.524;2024-03-06T03:46:43;5.80;97.00
10030;DHT22;5055;52.054;8.524;2024-03-06T03:49:12;5.80;97.00
10030;DHT22;5055;52.054;8.524;2024-03-06T03:51:41;5.80;97.00
10030;DHT22;5055;52.054;8.524;2024-03-06T03:54:10;5.80;97.00
10030;DHT22;5055;52.054;8.524;2024-03-06T03:56:38;5.80;97.00
10030;DHT22;5055;52.054;8.524;2024-03-06T03:59:06;5.90;97.00
10030;DHT22;5055;52.054;8.524;2024-03-06T04:01:34;5.90;97.00
10030;DHT22;5055;52.054;8.524;2024-03-06T04:04:04;5.90;97.00
10030;DHT22;5055;52.054;8.524;2024-03-06T04:06:33;5.90;97.00
10030;DHT22;5055;52.054;8.524;2024-03-06T04:09:02;5.90;97.00
10030;DHT22;5055;52.054;8.524;2024-03-06T04:11:31;5.90;97.00
10030;DHT22;5055;52.054;8.524;2024-03-06T04:14:00;5.90;97.00
10030;DHT22;5055;52.054;8.524;2024-03-06T04:16:29;5.90;97.00
10030;DHT22;5055;52.054;8.524;2024-03-06T04:19:00;5.90;97.00
10030;DHT22;5055;52.054;8.524;2024-03-06T04:21:30;5.90;97.00
10030;DHT22;5055;52.054;8.524;2024-03-06T04:23:58;5.90;97.00
10030;DHT22;5055;52.054;8.524;2024-03-06T04:26:26;5.90;97.00
10030;DHT22;5055;52.054;8.524;2024-03-06T04:28:54;5.90;97.00
10030;DHT22;5055;52.054;8.524;2024-03-06T04:31:22;5.90;97.00
10030;DHT22;5055;52.054;8.524;2024-03-06T04:33:50;5.90;97.00
10030;DHT22;5055;52.054;8.524;2024-03-06T04:36:18;5.90;97.00
10030;DHT22;5055;52.054;8.524;2024-03-06T04:38:48;5.90;97.00
10030;DHT22;5055;52.054;8.524;2024-03-06T04:41:18;5.90;97.00
10030;DHT22;5055;52.054;8.524;2024-03-06T04:43:46;5.90;97.00
10030;DHT22;5055;52.054;8.524;2024-03-06T04:46:17;5.90;97.00
10030;DHT22;5055;52.054;8.524;2024-03-06T04:48:45;5.90;97.00
10030;DHT22;5055;52.054;8.524;2024-03-06T04:51:14;5.90;97.00
10030;DHT22;5055;52.054;8.524;2024-03-06T04:53:42;5.90;97.00
10030;DHT22;5055;52.054;8.524;2024-03-06T04:56:11;5.90;97.00
10030;DHT22;5055;52.054;8.524;2024-03-06T04:58:40;5.90;97.00
10030;DHT22;5055;52.054;8.524;2024-03-06T05:01:09;5.90;97.00
10030;DHT22;5055;52.054;8.524;2024-03-06T05:03:37;5.90;97.00
10030;DHT22;5055;52.054;8.524;2024-03-06T05:06:23;5.90;97.00
10030;DHT22;5055;52.054;8.524;2024-03-06T05:09:09;5.90;97.00
10030;DHT22;5055;52.054;8.524;2024-03-06T05:11:56;5.90;97.00
10030;DHT22;5055;52.054;8.524;2024-03-06T05:14:43;5.90;97.00
10030;DHT22;5055;52.054;8.524;2024-03-06T05:17:28;6.00;97.00
10030;DHT22;5055;52.054;8.524;2024-03-06T05:20:14;6.00;97.00
10030;DHT22;5055;52.054;8.524;2024-03-06T05:23:01;6.00;97.00
10030;DHT22;5055;52.054;8.524;2024-03-06T05:25:46;6.00;97.00
10030;DHT22;5055;52.054;8.524;2024-03-06T05:28:36;5.90;97.00
10030;DHT22;5055;52.054;8.524;2024-03-06T05:31:22;5.90;97.00
10030;DHT22;5055;52.054;8.524;2024-03-06T05:34:09;5.90;97.00
10030;DHT22;5055;52.054;8.524;2024-03-06T05:36:55;5.90;97.00
10030;DHT22;5055;52.054;8.524;2024-03-06T05:39:41;5.90;97.00
10030;DHT22;5055;52.054;8.524;2024-03-06T05:42:27;5.90;97.00
10030;DHT22;5055;52.054;8.524;2024-03-06T05:45:15;5.90;97.00
10030;DHT22;5055;52.054;8.524;2024-03-06T05:48:01;5.90;97.00
10030;DHT22;5055;52.054;8.524;2024-03-06T05:50:48;5.90;97.00
10030;DHT22;5055;52.054;8.524;2024-03-06T05:53:36;5.90;97.00
10030;DHT22;5055;52.054;8.524;2024-03-06T05:56:23;5.90;97.00
10030;DHT22;5055;52.054;8.524;2024-03-06T05:59:09;5.90;97.00
10030;DHT22;5055;52.054;8.524;2024-03-06T06:01:39;5.90;97.00
10030;DHT22;5055;52.054;8.524;2024-03-06T06:04:08;5.90;97.00
10030;DHT22;5055;52.054;8.524;2024-03-06T06:06:37;5.90;97.00
10030;DHT22;5055;52.054;8.524;2024-03-06T06:09:05;5.90;97.00
10030;DHT22;5055;52.054;8.524;2024-03-06T06:11:33;5.90;97.00
10030;DHT22;5055;52.054;8.524;2024-03-06T06:14:01;5.90;97.00
10030;DHT22;5055;52.054;8.524;2024-03-06T06:16:36;5.90;97.00
10030;DHT22;5055;52.054;8.524;2024-03-06T06:19:05;5.90;97.00
10030;DHT22;5055;52.054;8.524;2024-03-06T06:21:34;5.90;97.00
10030;DHT22;5055;52.054;8.524;2024-03-06T06:24:03;5.90;97.00
10030;DHT22;5055;52.054;8.524;2024-03-06T06:26:31;5.90;97.00
10030;DHT22;5055;52.054;8.524;2024-03-06T06:29:00;5.90;97.00
10030;DHT22;5055;52.054;8.524;2024-03-06T06:31:28;5.90;97.00
10030;DHT22;5055;52.054;8.524;2024-03-06T06:33:56;5.90;97.00
10030;DHT22;5055;52.054;8.524;2024-03-06T06:36:25;5.90;97.00
10030;DHT22;5055;52.054;8.524;2024-03-06T06:38:53;5.90;97.00
10030;DHT22;5055;52.054;8.524;2024-03-06T06:41:22;5.90;97.00
10030;DHT22;5055;52.054;8.524;2024-03-06T06:43:50;5.90;97.00
10030;DHT22;5055;52.054;8.524;2024-03-06T06:46:19;5.90;97.00
10030;DHT22;5055;52.054;8.524;2024-03-06T06:48:48;5.90;97.00
10030;DHT22;5055;52.054;8.524;2024-03-06T06:51:16;5.90;97.00
10030;DHT22;5055;52.054;8.524;2024-03-06T06:53:45;5.90;97.00
10030;DHT22;5055;52.054;8.524;2024-03-06T06:56:13;5.90;97.00
10030;DHT22;5055;52.054;8.524;2024-03-06T06:58:42;5.90;97.00
10030;DHT22;5055;52.054;8.524;2024-03-06T07:01:10;6.00;97.00
10030;DHT22;5055;52.054;8.524;2024-03-06T07:03:38;5.90;97.00
10030;DHT22;5055;52.054;8.524;2024-03-06T07:06:06;5.90;97.00
10030;DHT22;5055;52.054;8.524;2024-03-06T07:08:34;5.90;97.00
10030;DHT22;5055;52.054;8.524;2024-03-06T07:11:04;5.90;97.00
10030;DHT22;5055;52.054;8.524;2024-03-06T07:13:32;5.90;97.00
10030;DHT22;5055;52.054;8.524;2024-03-06T07:16:02;5.80;97.00
10030;DHT22;5055;52.054;8.524;2024-03-06T07:18:31;5.80;97.00
10030;DHT22;5055;52.054;8.524;2024-03-06T07:21:00;5.80;97.00
10030;DHT22;5055;52.054;8.524;2024-03-06T07:23:28;5.80;97.00
10030;DHT22;5055;52.054;8.524;2024-03-06T07:25:56;5.90;97.00
10030;DHT22;5055;52.054;8.524;2024-03-06T07:28:27;5.90;97.00
10030;DHT22;5055;52.054;8.524;2024-03-06T07:30:55;5.90;97.00
10030;DHT22;5055;52.054;8.524;2024-03-06T07:33:23;5.90;97.00
10030;DHT22;5055;52.054;8.524;2024-03-06T07:35:51;5.90;97.00
10030;DHT22;5055;52.054;8.524;2024-03-06T07:38:19;6.00;97.00
10030;DHT22;5055;52.054;8.524;2024-03-06T07:40:47;6.00;97.00
10030;DHT22;5055;52.054;8.524;2024-03-06T07:43:16;6.00;97.00
10030;DHT22;5055;52.054;8.524;2024-03-06T07:45:46;6.00;97.00
10030;DHT22;5055;52.054;8.524;2024-03-06T07:48:15;6.00;97.00
10030;DHT22;5055;52.054;8.524;2024-03-06T07:50:43;6.00;97.00
10030;DHT22;5055;52.054;8.524;2024-03-06T07:53:12;6.10;97.00
10030;DHT22;5055;52.054;8.524;2024-03-06T07:55:40;6.10;97.00
10030;DHT22;5055;52.054;8.524;2024-03-06T07:58:08;6.10;97.00
10030;DHT22;5055;52.054;8.524;2024-03-06T08:00:37;6.10;97.00
10030;DHT22;5055;52.054;8.524;2024-03-06T08:03:07;6.10;97.00
10030;DHT22;5055;52.054;8.524;2024-03-06T08:05:35;6.10;97.00
10030;DHT22;5055;52.054;8.524;2024-03-06T08:08:04;6.10;97.00
10030;DHT22;5055;52.054;8.524;2024-03-06T08:10:32;6.10;97.00
10030;DHT22;5055;52.054;8.524;2024-03-06T08:13:00;6.10;97.00
10030;DHT22;5055;52.054;8.524;2024-03-06T08:15:29;6.10;97.00
10030;DHT22;5055;52.054;8.524;2024-03-06T08:17:58;6.10;97.00
10030;DHT22;5055;52.054;8.524;2024-03-06T08:20:27;6.10;97.00
10030;DHT22;5055;52.054;8.524;2024-03-06T08:22:56;6.10;97.00
10030;DHT22;5055;52.054;8.524;2024-03-06T08:25:24;6.20;97.00
10030;DHT22;5055;52.054;8.524;2024-03-06T08:27:53;6.20;97.00
10030;DHT22;5055;52.054;8.524;2024-03-06T08:30:21;6.20;97.00
10030;DHT22;5055;52.054;8.524;2024-03-06T08:32:49;6.20;97.00
10030;DHT22;5055;52.054;8.524;2024-03-06T08:35:19;6.30;97.00
10030;DHT22;5055;52.054;8.524;2024-03-06T08:37:50;6.30;97.00
10030;DHT22;5055;52.054;8.524;2024-03-06T08:40:18;6.30;97.00
10030;DHT22;5055;52.054;8.524;2024-03-06T08:42:47;6.30;97.00
10030;DHT22;5055;52.054;8.524;2024-03-06T08:45:16;6.40;97.00
10030;DHT22;5055;52.054;8.524;2024-03-06T08:47:45;6.40;97.00
10030;DHT22;5055;52.054;8.524;2024-03-06T08:50:14;6.40;97.00
10030;DHT22;5055;52.054;8.524;2024-03-06T08:52:43;6.40;97.00
10030;DHT22;5055;52.054;8.524;2024-03-06T08:55:12;6.50;97.00
10030;DHT22;5055;52.054;8.524;2024-03-06T08:57:40;6.50;97.00
10030;DHT22;5055;52.054;8.524;2024-03-06T09:00:09;6.50;97.00
10030;DHT22;5055;52.054;8.524;2024-03-06T09:02:39;6.60;97.00
10030;DHT22;5055;52.054;8.524;2024-03-06T09:05:09;6.60;97.00
10030;DHT22;5055;52.054;8.524;2024-03-06T09:07:40;6.60;97.00
10030;DHT22;5055;52.054;8.524;2024-03-06T09:10:09;6.60;97.00
10030;DHT22;5055;52.054;8.524;2024-03-06T09:12:39;6.60;97.00
10030;DHT22;5055;52.054;8.524;2024-03-06T09:15:07;6.60;97.00
10030;DHT22;5055;52.054;8.524;2024-03-06T09:17:36;6.70;97.00
10030;DHT22;5055;52.054;8.524;2024-03-06T09:20:05;6.70;97.00
10030;DHT22;5055;52.054;8.524;2024-03-06T09:22:39;6.70;97.00
10030;DHT22;5055;52.054;8.524;2024-03-06T09:25:08;6.70;97.00
10030;DHT22;5055;52.054;8.524;2024-03-06T09:27:37;6.70;97.00
10030;DHT22;5055;52.054;8.524;2024-03-06T09:30:07;6.70;97.00
10030;DHT22;5055;52.054;8.524;2024-03-06T09:32:37;6.70;97.00
10030;DHT22;5055;52.054;8.524;2024-03-06T09:35:07;6.70;97.00
10030;DHT22;5055;52.054;8.524;2024-03-06T09:37:35;6.80;97.00
10030;DHT22;5055;52.054;8.524;2024-03-06T09:40:03;6.80;97.00
10030;DHT22;5055;52.054;8.524;2024-03-06T09:42:34;6.80;97.00
10030;DHT22;5055;52.054;8.524;2024-03-06T09:45:03;6.90;97.00
10030;DHT22;5055;52.054;8.524;2024-03-06T09:47:32;6.90;97.00
10030;DHT22;5055;52.054;8.524;2024-03-06T09:50:08;7.00;97.00
10030;DHT22;5055;52.054;8.524;2024-03-06T09:52:36;7.00;97.00
10030;DHT22;5055;52.054;8.524;2024-03-06T09:55:07;7.10;97.00
10030;DHT22;5055;52.054;8.524;2024-03-06T09:57:36;7.10;97.00
10030;DHT22;5055;52.054;8.524;2024-03-06T10:00:07;7.10;97.00
10030;DHT22;5055;52.054;8.524;2024-03-06T10:02:48;7.10;97.00
10030;DHT22;5055;52.054;8.524;2024-03-06T10:05:22;7.20;97.00
10030;DHT22;5055;52.054;8.524;2024-03-06T10:07:51;7.20;97.00
10030;DHT22;5055;52.054;8.524;2024-03-06T10:10:20;7.20;97.00
10030;DHT22;5055;52.054;8.524;2024-03-06T10:12:50;7.20;97.00
10030;DHT22;5055;52.054;8.524;2024-03-06T10:15:18;7.30;97.00
10030;DHT22;5055;52.054;8.524;2024-03-06T10:17:47;7.30;97.00
10030;DHT22;5055;52.054;8.524;2024-03-06T10:20:18;7.30;97.00
10030;DHT22;5055;52.054;8.524;2024-03-06T10:22:49;7.40;97.00
10030;DHT22;5055;52.054;8.524;2024-03-06T10:25:24;7.40;97.00
10030;DHT22;5055;52.054;8.524;2024-03-06T10:28:07;7.50;97.00
10030;DHT22;5055;52.054;8.524;2024-03-06T10:30:36;7.50;97.00
10030;DHT22;5055;52.054;8.524;2024-03-06T10:33:06;7.60;97.00
10030;DHT22;5055;52.054;8.524;2024-03-06T10:35:34;7.70;97.00
10030;DHT22;5055;52.054;8.524;2024-03-06T10:38:04;7.70;97.00
10030;DHT22;5055;52.054;8.524;2024-03-06T10:40:34;7.70;97.00
10030;DHT22;5055;52.054;8.524;2024-03-06T10:43:03;7.80;97.00
10030;DHT22;5055;52.054;8.524;2024-03-06T10:45:40;7.70;97.00
10030;DHT22;5055;52.054;8.524;2024-03-06T10:48:10;7.80;97.00
10030;DHT22;5055;52.054;8.524;2024-03-06T10:50:42;7.80;97.00
10030;DHT22;5055;52.054;8.524;2024-03-06T10:53:12;7.70;97.00
10030;DHT22;5055;52.054;8.524;2024-03-06T10:55:44;7.70;97.00
10030;DHT22;5055;52.054;8.524;2024-03-06T10:58:13;7.70;97.00
10030;DHT22;5055;52.054;8.524;2024-03-06T11:00:44;7.80;97.00
10030;DHT22;5055;52.054;8.524;2024-03-06T11:03:15;7.70;97.00
10030;DHT22;5055;52.054;8.524;2024-03-06T11:05:45;7.70;97.00
10030;DHT22;5055;52.054;8.524;2024-03-06T11:08:15;7.70;97.00
10030;DHT22;5055;52.054;8.524;2024-03-06T11:10:44;7.80;97.00
10030;DHT22;5055;52.054;8.524;2024-03-06T11:13:21;7.80;97.00
10030;DHT22;5055;52.054;8.524;2024-03-06T11:15:51;7.80;97.00
10030;DHT22;5055;52.054;8.524;2024-03-06T11:18:42;7.90;97.00
10030;DHT22;5055;52.054;8.524;2024-03-06T11:21:28;8.00;97.00
10030;DHT22;5055;52.054;8.524;2024-03-06T11:24:23;8.00;97.00
10030;DHT22;5055;52.054;8.524;2024-03-06T11:26:55;8.00;97.00
10030;DHT22;5055;52.054;8.524;2024-03-06T11:29:28;8.10;97.00
10030;DHT22;5055;52.054;8.524;2024-03-06T11:32:04;8.00;97.00
10030;DHT22;5055;52.054;8.524;2024-03-06T11:34:36;8.00;97.00
10030;DHT22;5055;52.054;8.524;2024-03-06T11:37:06;8.00;97.00
10030;DHT22;5055;52.054;8.524;2024-03-06T11:39:38;7.90;97.00
10030;DHT22;5055;52.054;8.524;2024-03-06T11:42:09;7.90;97.00
10030;DHT22;5055;52.054;8.524;2024-03-06T11:44:52;7.90;97.00
10030;DHT22;5055;52.054;8.524;2024-03-06T11:47:22;7.90;97.00
10030;DHT22;5055;52.054;8.524;2024-03-06T11:49:53;7.90;97.00
10030;DHT22;5055;52.054;8.524;2024-03-06T11:52:22;7.90;97.00
10030;DHT22;5055;52.054;8.524;2024-03-06T11:54:51;8.00;97.00
10030;DHT22;5055;52.054;8.524;2024-03-06T11:57:21;8.00;97.00
10030;DHT22;5055;52.054;8.524;2024-03-06T11:59:52;8.00;97.00
10030;DHT22;5055;52.054;8.524;2024-03-06T12:02:21;8.00;97.00
10030;DHT22;5055;52.054;8.524;2024-03-06T12:04:49;8.00;97.00
10030;DHT22;5055;52.054;8.524;2024-03-06T12:07:20;8.00;97.00
10030;DHT22;5055;52.054;8.524;2024-03-06T12:09:52;8.00;97.00
10030;DHT22;5055;52.054;8.524;2024-03-06T12:12:20;8.00;97.00
10030;DHT22;5055;52.054;8.524;2024-03-06T12:14:57;8.00;97.00
10030;DHT22;5055;52.054;8.524;2024-03-06T12:17:25;8.00;97.00
10030;DHT22;5055;52.054;8.524;2024-03-06T12:19:55;7.90;97.00
10030;DHT22;5055;52.054;8.524;2024-03-06T12:22:26;7.90;97.00
10030;DHT22;5055;52.054;8.524;2024-03-06T12:24:59;7.90;97.00
10030;DHT22;5055;52.054;8.524;2024-03-06T12:27:30;8.00;97.00
10030;DHT22;5055;52.054;8.524;2024-03-06T12:30:01;8.00;97.00
10030;DHT22;5055;52.054;8.524;2024-03-06T12:32:32;8.10;97.00
10030;DHT22;5055;52.054;8.524;2024-03-06T12:35:01;8.10;97.00
10030;DHT22;5055;52.054;8.524;2024-03-06T12:37:32;8.20;97.00
10030;DHT22;5055;52.054;8.524;2024-03-06T12:40:02;8.20;97.00
10030;DHT22;5055;52.054;8.524;2024-03-06T12:42:31;8.30;97.00
10030;DHT22;5055;52.054;8.524;2024-03-06T12:45:00;8.40;97.00
10030;DHT22;5055;52.054;8.524;2024-03-06T12:47:28;8.50;97.00
10030;DHT22;5055;52.054;8.524;2024-03-06T12:49:56;8.60;97.00
10030;DHT22;5055;52.054;8.524;2024-03-06T12:52:24;8.60;97.00
10030;DHT22;5055;52.054;8.524;2024-03-06T12:54:53;8.70;97.00
10030;DHT22;5055;52.054;8.524;2024-03-06T12:57:21;8.80;97.00
10030;DHT22;5055;52.054;8.524;2024-03-06T12:59:49;8.90;97.00
10030;DHT22;5055;52.054;8.524;2024-03-06T13:02:18;8.90;97.00
10030;DHT22;5055;52.054;8.524;2024-03-06T13:04:46;9.00;97.00
10030;DHT22;5055;52.054;8.524;2024-03-06T13:07:14;9.10;97.00
10030;DHT22;5055;52.054;8.524;2024-03-06T13:09:43;9.20;97.00
10030;DHT22;5055;52.054;8.524;2024-03-06T13:12:12;9.30;97.00
10030;DHT22;5055;52.054;8.524;2024-03-06T13:14:41;9.30;97.00
10030;DHT22;5055;52.054;8.524;2024-03-06T13:17:09;9.30;97.00
10030;DHT22;5055;52.054;8.524;2024-03-06T13:19:37;9.30;97.00
10030;DHT22;5055;52.054;8.524;2024-03-06T13:22:05;9.30;97.00
10030;DHT22;5055;52.054;8.524;2024-03-06T13:24:34;9.30;97.00
10030;DHT22;5055;52.054;8.524;2024-03-06T13:27:07;9.40;97.00
10030;DHT22;5055;52.054;8.524;2024-03-06T13:29:37;9.40;97.00
10030;DHT22;5055;52.054;8.524;2024-03-06T13:32:06;9.40;97.00
10030;DHT22;5055;52.054;8.524;2024-03-06T13:34:35;9.40;97.00
10030;DHT22;5055;52.054;8.524;2024-03-06T13:37:03;9.40;97.00
10030;DHT22;5055;52.054;8.524;2024-03-06T13:39:33;9.30;97.00
10030;DHT22;5055;52.054;8.524;2024-03-06T13:42:02;9.30;97.00
10030;DHT22;5055;52.054;8.524;2024-03-06T13:44:30;9.30;97.00
10030;DHT22;5055;52.054;8.524;2024-03-06T13:46:59;9.30;97.00
10030;DHT22;5055;52.054;8.524;2024-03-06T13:49:36;9.30;97.00
10030;DHT22;5055;52.054;8.524;2024-03-06T13:52:05;9.30;97.00
10030;DHT22;5055;52.054;8.524;2024-03-06T13:54:34;9.30;97.00
10030;DHT22;5055;52.054;8.524;2024-03-06T13:57:03;9.40;97.00
10030;DHT22;5055;52.054;8.524;2024-03-06T13:59:31;9.50;97.00
10030;DHT22;5055;52.054;8.524;2024-03-06T14:02:01;9.50;97.00
10030;DHT22;5055;52.054;8.524;2024-03-06T14:04:30;9.60;97.00
10030;DHT22;5055;52.054;8.524;2024-03-06T14:06:58;9.80;97.00
10030;DHT22;5055;52.054;8.524;2024-03-06T14:09:27;9.80;97.00
10030;DHT22;5055;52.054;8.524;2024-03-06T14:11:56;9.80;97.00
10030;DHT22;5055;52.054;8.524;2024-03-06T14:14:24;9.80;97.00
10030;DHT22;5055;52.054;8.524;2024-03-06T14:16:53;9.90;97.00
10030;DHT22;5055;52.054;8.524;2024-03-06T14:19:22;9.90;97.00
10030;DHT22;5055;52.054;8.524;2024-03-06T14:21:52;9.90;97.00
10030;DHT22;5055;52.054;8.524;2024-03-06T14:24:20;10.00;97.00
10030;DHT22;5055;52.054;8.524;2024-03-06T14:26:49;10.10;97.00
10030;DHT22;5055;52.054;8.524;2024-03-06T14:29:17;10.00;97.00
10030;DHT22;5055;52.054;8.524;2024-03-06T14:31:45;10.10;97.00
10030;DHT22;5055;52.054;8.524;2024-03-06T14:34:13;10.10;97.00
10030;DHT22;5055;52.054;8.524;2024-03-06T14:36:43;10.20;97.00
10030;DHT22;5055;52.054;8.524;2024-03-06T14:39:11;10.30;97.00
10030;DHT22;5055;52.054;8.524;2024-03-06T14:41:40;10.50;97.00
10030;DHT22;5055;52.054;8.524;2024-03-06T14:44:10;10.60;97.00
10030;DHT22;5055;52.054;8.524;2024-03-06T14:46:41;10.90;97.00
10030;DHT22;5055;52.054;8.524;2024-03-06T14:49:10;11.20;97.00
10030;DHT22;5055;52.054;8.524;2024-03-06T14:51:40;11.70;97.00
10030;DHT22;5055;52.054;8.524;2024-03-06T14:54:13;12.20;97.00
10030;DHT22;5055;52.054;8.524;2024-03-06T14:56:43;12.50;97.00
10030;DHT22;5055;52.054;8.524;2024-03-06T14:59:13;12.60;97.00
10030;DHT22;5055;52.054;8.524;2024-03-06T15:01:41;12.60;97.00
10030;DHT22;5055;52.054;8.524;2024-03-06T15:04:09;12.60;97.00
10030;DHT22;5055;52.054;8.524;2024-03-06T15:06:38;12.60;97.00
10030;DHT22;5055;52.054;8.524;2024-03-06T15:09:06;12.70;97.00
10030;DHT22;5055;52.054;8.524;2024-03-06T15:11:39;13.00;97.00
10030;DHT22;5055;52.054;8.524;2024-03-06T15:14:08;13.30;97.00
10030;DHT22;5055;52.054;8.524;2024-03-06T15:16:37;13.40;97.00
10030;DHT22;5055;52.054;8.524;2024-03-06T15:19:06;13.20;97.00
10030;DHT22;5055;52.054;8.524;2024-03-06T15:21:34;12.80;97.00
10030;DHT22;5055;52.054;8.524;2024-03-06T15:24:03;12.40;97.00
10030;DHT22;5055;52.054;8.524;2024-03-06T15:26:32;12.00;97.00
10030;DHT22;5055;52.054;8.524;2024-03-06T15:29:03;11.70;97.00
10030;DHT22;5055;52.054;8.524;2024-03-06T15:31:33;11.40;97.00
10030;DHT22;5055;52.054;8.524;2024-03-06T15:34:01;11.30;97.00
10030;DHT22;5055;52.054;8.524;2024-03-06T15:36:30;11.00;97.00
10030;DHT22;5055;52.054;8.524;2024-03-06T15:38:58;11.00;97.00
10030;DHT22;5055;52.054;8.524;2024-03-06T15:41:26;10.90;97.00
10030;DHT22;5055;52.054;8.524;2024-03-06T15:43:55;10.80;97.00
10030;DHT22;5055;52.054;8.524;2024-03-06T15:46:27;10.70;97.00
10030;DHT22;5055;52.054;8.524;2024-03-06T15:48:55;10.60;97.00
10030;DHT22;5055;52.054;8.524;2024-03-06T15:51:23;10.50;97.00
10030;DHT22;5055;52.054;8.524;2024-03-06T15:53:51;10.40;97.00
10030;DHT22;5055;52.054;8.524;2024-03-06T15:56:20;10.20;97.00
10030;DHT22;5055;52.054;8.524;2024-03-06T15:58:50;10.10;97.00
10030;DHT22;5055;52.054;8.524;2024-03-06T16:01:18;10.00;97.00
10030;DHT22;5055;52.054;8.524;2024-03-06T16:03:48;10.00;97.00
10030;DHT22;5055;52.054;8.524;2024-03-06T16:06:19;10.00;97.00
10030;DHT22;5055;52.054;8.524;2024-03-06T16:08:56;9.90;97.00
10030;DHT22;5055;52.054;8.524;2024-03-06T16:11:26;9.80;97.00
10030;DHT22;5055;52.054;8.524;2024-03-06T16:13:56;9.80;97.00
10030;DHT22;5055;52.054;8.524;2024-03-06T16:16:26;9.70;97.00
10030;DHT22;5055;52.054;8.524;2024-03-06T16:18:56;9.50;97.00